createdAt,value
2023-08-07T00:02:11.843Z,99.90
2023-08-07T00:04:38.934Z,99.90
2023-08-07T00:07:06.271Z,99.90
2023-08-07T00:09:33.260Z,99.90
2023-08-07T00:12:00.291Z,99.90
2023-08-07T00:14:27.209Z,99.90
2023-08-07T00:16:54.006Z,99.90
2023-08-07T00:19:21.041Z,99.90
2023-08-07T00:21:50.589Z,99.90
2023-08-07T00:24:17.612Z,99.90
2023-08-07T00:26:44.460Z,99.90
2023-08-07T00:29:11.415Z,99.90
2023-08-07T00:31:38.609Z,99.90
2023-08-07T00:34:05.602Z,99.90
2023-08-07T00:36:35.826Z,99.90
2023-08-07T00:39:04.686Z,99.90
2023-08-07T00:41:31.659Z,99.90
2023-08-07T00:43:58.710Z,99.90
2023-08-07T00:46:31.677Z,99.90
2023-08-07T00:48:58.749Z,99.90
2023-08-07T00:51:27.159Z,99.90
2023-08-07T00:53:54.378Z,99.90
2023-08-07T00:56:21.508Z,99.90
2023-08-07T00:58:49.829Z,99.90
2023-08-07T01:01:17.028Z,99.90
2023-08-07T01:03:43.981Z,99.90
2023-08-07T01:06:11.810Z,99.90
2023-08-07T01:08:39.099Z,99.90
2023-08-07T01:11:17.305Z,99.90
2023-08-07T01:14:03.257Z,99.90
2023-08-07T01:16:49.544Z,99.90
2023-08-07T01:19:29.549Z,99.90
2023-08-07T01:22:15.998Z,99.90
2023-08-07T01:24:50.784Z,99.90
2023-08-07T01:27:36.643Z,99.90
2023-08-07T01:30:14.602Z,99.90
2023-08-07T01:33:04.047Z,99.90
2023-08-07T01:35:33.768Z,99.90
2023-08-07T01:38:01.186Z,99.90
2023-08-07T01:40:29.607Z,99.90
2023-08-07T01:42:56.620Z,99.90
2023-08-07T01:45:27.222Z,99.90
2023-08-07T01:47:54.390Z,99.90
2023-08-07T01:50:21.827Z,99.90
2023-08-07T01:52:48.787Z,99.90
2023-08-07T01:55:16.704Z,99.90
2023-08-07T01:57:50.619Z,99.90
2023-08-07T02:00:17.981Z,99.90
2023-08-07T02:02:46.613Z,99.90
2023-08-07T02:05:13.749Z,99.90
2023-08-07T02:07:41.202Z,99.90
2023-08-07T02:10:08.316Z,99.90
2023-08-07T02:12:36.821Z,99.90
2023-08-07T02:15:04.168Z,99.90
2023-08-07T02:17:34.220Z,99.90
2023-08-07T02:20:01.216Z,99.90
2023-08-07T02:22:28.057Z,99.90
2023-08-07T02:24:54.848Z,99.90
2023-08-07T02:27:21.847Z,99.90
2023-08-07T02:29:48.736Z,99.90
2023-08-07T02:32:15.555Z,99.90
2023-08-07T02:34:42.417Z,99.90
2023-08-07T02:37:09.225Z,99.90
2023-08-07T02:39:37.104Z,99.90
2023-08-07T02:42:05.568Z,99.90
2023-08-07T02:44:32.499Z,99.90
2023-08-07T02:46:59.359Z,99.90
2023-08-07T02:49:26.265Z,99.90
2023-08-07T02:51:53.440Z,99.90
2023-08-07T02:54:20.310Z,99.90
2023-08-07T02:56:47.234Z,99.90
2023-08-07T02:59:14.205Z,99.90
2023-08-07T03:01:41.138Z,99.90
2023-08-07T03:04:08.151Z,99.90
2023-08-07T03:06:34.994Z,99.90
2023-08-07T03:09:02.043Z,99.90
2023-08-07T03:11:29.012Z,99.90
2023-08-07T03:13:55.963Z,99.90
2023-08-07T03:16:22.888Z,99.90
2023-08-07T03:18:49.806Z,99.90
2023-08-07T03:21:16.593Z,99.90
2023-08-07T03:23:43.460Z,99.90
2023-08-07T03:26:18.894Z,99.90
2023-08-07T03:28:49.552Z,99.90
2023-08-07T03:31:18.687Z,99.90
2023-08-07T03:33:46.818Z,99.90
2023-08-07T03:36:14.963Z,99.90
2023-08-07T03:38:42.467Z,99.90
2023-08-07T03:41:09.993Z,99.90
2023-08-07T03:43:38.399Z,99.90
2023-08-07T03:46:05.270Z,99.90
2023-08-07T03:48:32.605Z,99.90
2023-08-07T03:51:12.122Z,99.90
2023-08-07T03:53:48.982Z,99.90
2023-08-07T03:56:18.141Z,99.90
2023-08-07T03:58:45.608Z,99.90
2023-08-07T04:01:13.303Z,99.90
2023-08-07T04:03:41.657Z,99.90
2023-08-07T04:06:13.794Z,99.90
2023-08-07T04:08:40.751Z,99.90
2023-08-07T04:11:08.292Z,99.90
2023-08-07T04:13:35.744Z,99.90
2023-08-07T04:16:05.355Z,99.90
2023-08-07T04:18:35.742Z,99.90
2023-08-07T04:21:03.305Z,99.90
2023-08-07T04:23:30.234Z,99.90
2023-08-07T04:25:57.098Z,99.90
2023-08-07T04:28:24.724Z,99.90
2023-08-07T04:30:52.341Z,99.90
2023-08-07T04:33:20.075Z,99.90
2023-08-07T04:35:47.855Z,99.90
2023-08-07T04:38:15.729Z,99.90
2023-08-07T04:40:48.828Z,99.90
2023-08-07T04:43:16.507Z,99.90
2023-08-07T04:45:44.117Z,99.90
2023-08-07T04:48:11.087Z,99.90
2023-08-07T04:50:38.146Z,99.90
2023-08-07T04:53:08.129Z,99.90
2023-08-07T04:55:34.961Z,99.90
2023-08-07T04:58:01.752Z,99.90
2023-08-07T05:00:29.009Z,99.90
2023-08-07T05:02:56.059Z,99.90
2023-08-07T05:05:27.021Z,99.90
2023-08-07T05:07:55.883Z,99.90
2023-08-07T05:10:22.777Z,99.90
2023-08-07T05:12:49.786Z,99.90
2023-08-07T05:15:16.642Z,99.90
2023-08-07T05:17:43.641Z,99.90
2023-08-07T05:20:13.550Z,99.90
2023-08-07T05:22:40.556Z,99.90
2023-08-07T05:25:07.931Z,99.90
2023-08-07T05:27:36.147Z,99.90
2023-08-07T05:30:04.410Z,99.90
2023-08-07T05:32:31.461Z,99.90
2023-08-07T05:35:02.024Z,99.90
2023-08-07T05:37:30.884Z,99.90
2023-08-07T05:39:57.709Z,99.90
2023-08-07T05:42:24.599Z,99.90
2023-08-07T05:44:51.619Z,99.90
2023-08-07T05:47:18.704Z,99.90
2023-08-07T05:49:45.527Z,99.90
2023-08-07T05:52:12.524Z,99.90
2023-08-07T05:54:41.621Z,99.90
2023-08-07T05:57:08.566Z,99.90
2023-08-07T05:59:35.853Z,99.90
2023-08-07T06:02:06.026Z,99.90
2023-08-07T06:04:33.476Z,99.90
2023-08-07T06:07:00.543Z,99.90
2023-08-07T06:09:27.495Z,99.90
2023-08-07T06:11:54.796Z,99.90
2023-08-07T06:14:22.449Z,99.90
2023-08-07T06:16:49.714Z,99.90
2023-08-07T06:19:29.204Z,99.90
2023-08-07T06:21:59.110Z,99.90
2023-08-07T06:24:27.206Z,99.90
2023-08-07T06:26:54.356Z,99.90
2023-08-07T06:29:21.653Z,99.90
2023-08-07T06:31:48.819Z,99.90
2023-08-07T06:34:15.739Z,99.90
2023-08-07T06:36:42.865Z,99.90
2023-08-07T06:39:09.787Z,99.90
2023-08-07T06:41:37.302Z,99.90
2023-08-07T06:44:04.210Z,99.90
2023-08-07T06:46:31.207Z,99.90
2023-08-07T06:49:01.222Z,99.90
2023-08-07T06:51:28.128Z,99.90
2023-08-07T06:53:54.967Z,99.90
2023-08-07T06:56:22.402Z,99.90
2023-08-07T06:58:49.519Z,99.90
2023-08-07T07:01:16.415Z,99.90
2023-08-07T07:03:43.511Z,99.90
2023-08-07T07:06:11.203Z,99.90
2023-08-07T07:08:38.557Z,99.90
2023-08-07T07:11:09.542Z,99.90
2023-08-07T07:13:36.895Z,99.90
2023-08-07T07:16:03.939Z,99.90
2023-08-07T07:18:30.911Z,99.90
2023-08-07T07:21:01.719Z,99.90
2023-08-07T07:23:29.276Z,99.90
2023-08-07T07:25:56.279Z,99.90
2023-08-07T07:28:23.713Z,99.90
2023-08-07T07:30:51.443Z,99.90
2023-08-07T07:33:18.599Z,99.90
2023-08-07T07:35:48.010Z,99.90
2023-08-07T07:38:16.518Z,99.90
2023-08-07T07:40:43.579Z,99.90
2023-08-07T07:43:10.524Z,99.90
2023-08-07T07:45:37.571Z,99.90
2023-08-07T07:48:05.080Z,99.90
2023-08-07T07:50:32.160Z,99.90
2023-08-07T07:52:59.156Z,99.90
2023-08-07T07:55:26.823Z,99.90
2023-08-07T07:57:54.851Z,99.90
2023-08-07T08:00:23.622Z,99.90
2023-08-07T08:02:50.733Z,99.90
2023-08-07T08:05:19.916Z,99.90
2023-08-07T08:07:46.890Z,99.90
2023-08-07T08:10:14.494Z,99.90
2023-08-07T08:12:41.543Z,99.90
2023-08-07T08:15:09.038Z,99.90
2023-08-07T08:17:35.983Z,99.90
2023-08-07T08:20:03.114Z,99.90
2023-08-07T08:22:30.070Z,99.90
2023-08-07T08:24:57.010Z,99.90
2023-08-07T08:27:24.099Z,99.90
2023-08-07T08:29:51.047Z,99.90
2023-08-07T08:32:18.243Z,99.90
2023-08-07T08:34:45.246Z,99.90
2023-08-07T08:37:12.420Z,99.90
2023-08-07T08:39:39.423Z,99.90
2023-08-07T08:42:06.773Z,99.90
2023-08-07T08:44:33.953Z,99.90
2023-08-07T08:47:01.321Z,99.90
2023-08-07T08:53:28.512Z,99.90
2023-08-07T08:55:55.541Z,99.90
2023-08-07T08:58:22.728Z,99.90
2023-08-07T09:00:49.857Z,99.90
2023-08-07T09:03:16.915Z,99.90
2023-08-07T09:05:43.847Z,99.90
2023-08-07T09:08:11.109Z,99.90
2023-08-07T09:10:38.318Z,99.90
2023-08-07T09:13:06.582Z,99.90
2023-08-07T09:15:34.076Z,99.90
2023-08-07T09:18:01.018Z,99.90
2023-08-07T09:20:27.996Z,99.90
2023-08-07T09:22:55.003Z,99.90
2023-08-07T09:25:32.493Z,99.90
2023-08-07T09:27:59.692Z,99.90
2023-08-07T09:30:30.396Z,99.90
2023-08-07T09:33:01.220Z,99.90
2023-08-07T09:35:28.761Z,99.60
2023-08-07T09:37:55.598Z,99.90
2023-08-07T09:40:22.917Z,99.90
2023-08-07T09:42:54.237Z,99.90
2023-08-07T09:45:21.765Z,99.90
2023-08-07T09:47:57.373Z,99.80
2023-08-07T09:50:24.535Z,99.00
2023-08-07T09:52:51.409Z,99.40
2023-08-07T09:55:18.224Z,99.80
2023-08-07T09:57:45.120Z,99.10
2023-08-07T10:00:15.412Z,99.40
2023-08-07T10:02:43.907Z,98.40
2023-08-07T10:05:11.688Z,98.40
2023-08-07T10:07:41.382Z,98.10
2023-08-07T10:10:08.939Z,98.30
2023-08-07T10:12:35.822Z,98.10
2023-08-07T10:15:02.800Z,98.00
2023-08-07T10:17:29.777Z,97.40
2023-08-07T10:19:58.132Z,97.10
2023-08-07T10:22:26.077Z,97.40
2023-08-07T10:24:54.576Z,96.50
2023-08-07T10:27:22.598Z,97.00
2023-08-07T10:29:50.097Z,96.70
2023-08-07T10:32:18.785Z,97.10
2023-08-07T10:34:50.669Z,97.20
2023-08-07T10:37:40.670Z,96.60
2023-08-07T10:40:11.040Z,95.90
2023-08-07T10:42:56.445Z,96.50
2023-08-07T10:45:24.009Z,96.30
2023-08-07T10:48:04.238Z,96.80
2023-08-07T10:50:35.373Z,96.30
2023-08-07T10:53:03.894Z,96.30
2023-08-07T10:55:49.409Z,97.00
2023-08-07T10:58:24.323Z,95.90
2023-08-07T11:00:52.988Z,96.70
2023-08-07T11:03:29.198Z,95.90
2023-08-07T11:05:59.273Z,95.30
2023-08-07T11:08:26.059Z,96.00
2023-08-07T11:10:53.273Z,96.30
2023-08-07T11:13:20.206Z,95.80
2023-08-07T11:15:47.546Z,95.40
2023-08-07T11:18:15.149Z,96.10
2023-08-07T11:20:42.254Z,96.10
2023-08-07T11:23:09.125Z,94.80
2023-08-07T11:25:35.917Z,95.10
2023-08-07T11:28:02.783Z,95.40
2023-08-07T11:30:29.864Z,94.30
2023-08-07T11:32:56.675Z,94.00
2023-08-07T11:35:24.225Z,95.00
2023-08-07T11:37:51.861Z,95.20
2023-08-07T11:40:18.732Z,93.30
2023-08-07T11:42:45.626Z,93.90
2023-08-07T11:45:12.634Z,93.60
2023-08-07T11:47:40.178Z,93.60
2023-08-07T11:50:07.971Z,92.40
2023-08-07T11:52:34.928Z,92.30
2023-08-07T11:55:04.783Z,93.10
2023-08-07T11:57:31.740Z,93.40
2023-08-07T12:00:00.238Z,93.40
2023-08-07T12:02:27.340Z,92.70
2023-08-07T12:04:59.363Z,92.90
2023-08-07T12:07:28.622Z,92.10
2023-08-07T12:09:56.519Z,91.30
2023-08-07T12:12:23.438Z,92.50
2023-08-07T12:14:54.885Z,92.60
2023-08-07T12:17:22.836Z,92.30
2023-08-07T12:19:50.885Z,92.20
2023-08-07T12:22:20.447Z,92.60
2023-08-07T12:24:47.345Z,92.80
2023-08-07T12:27:14.177Z,92.40
2023-08-07T12:29:41.290Z,92.80
2023-08-07T12:32:10.369Z,92.60
2023-08-07T12:35:15.133Z,92.00
2023-08-07T12:37:25.680Z,92.50
2023-08-07T12:42:25.588Z,92.10
2023-08-07T12:44:52.860Z,90.10
2023-08-07T12:47:19.723Z,91.00
2023-08-07T12:49:48.886Z,89.90
2023-08-07T12:52:15.826Z,90.50
2023-08-07T12:54:42.806Z,90.60
2023-08-07T12:57:09.690Z,90.50
2023-08-07T12:59:36.553Z,88.60
2023-08-07T13:02:03.641Z,90.20
2023-08-07T13:04:30.924Z,88.40
2023-08-07T13:06:58.162Z,87.60
2023-08-07T13:09:25.255Z,88.50
2023-08-07T13:11:52.058Z,86.10
2023-08-07T13:14:18.954Z,88.10
2023-08-07T13:16:45.951Z,88.20
2023-08-07T13:19:12.782Z,87.60
2023-08-07T13:21:39.717Z,87.10
2023-08-07T13:24:06.611Z,87.30
2023-08-07T13:26:33.609Z,88.50
2023-08-07T13:29:00.936Z,87.30
2023-08-07T13:31:28.097Z,87.10
2023-08-07T13:33:55.097Z,86.70
2023-08-07T13:36:22.218Z,88.50
2023-08-07T13:38:48.983Z,85.30
2023-08-07T13:41:15.857Z,84.60
2023-08-07T13:43:42.676Z,84.80
2023-08-07T13:46:09.574Z,83.80
2023-08-07T13:48:37.077Z,84.70
2023-08-07T13:51:08.094Z,84.70
2023-08-07T13:53:37.705Z,84.50
2023-08-07T13:56:04.862Z,86.30
2023-08-07T13:58:31.879Z,85.10
2023-08-07T14:00:59.373Z,83.90
2023-08-07T14:03:26.434Z,82.60
2023-08-07T14:05:53.602Z,83.50
2023-08-07T14:08:20.554Z,81.50
2023-08-07T14:10:47.331Z,83.90
2023-08-07T14:13:14.194Z,82.20
2023-08-07T14:15:41.502Z,82.00
2023-08-07T14:18:08.450Z,79.70
2023-08-07T14:20:47.702Z,82.60
2023-08-07T14:23:23.059Z,81.20
2023-08-07T14:25:51.900Z,80.10
2023-08-07T14:28:19.000Z,80.90
2023-08-07T14:30:45.961Z,80.40
2023-08-07T14:33:12.948Z,82.70
2023-08-07T14:35:39.795Z,82.20
2023-08-07T14:38:06.853Z,79.80
2023-08-07T14:40:33.828Z,78.90
2023-08-07T14:43:00.781Z,78.50
2023-08-07T14:45:27.714Z,80.40
2023-08-07T14:47:54.659Z,81.30
2023-08-07T14:50:21.461Z,80.70
2023-08-07T14:52:48.285Z,80.50
2023-08-07T14:55:15.210Z,80.80
2023-08-07T14:57:42.060Z,80.00
2023-08-07T15:00:10.310Z,79.90
2023-08-07T15:02:37.673Z,80.10
2023-08-07T15:05:04.889Z,80.00
2023-08-07T15:07:31.826Z,80.20
2023-08-07T15:09:58.686Z,80.00
2023-08-07T15:12:26.253Z,80.50
2023-08-07T15:14:53.161Z,80.20
2023-08-07T15:17:20.197Z,81.20
2023-08-07T15:19:47.160Z,80.30
2023-08-07T15:22:14.088Z,80.30
2023-08-07T15:24:41.035Z,80.80
2023-08-07T15:27:08.066Z,79.90
2023-08-07T15:29:34.973Z,80.50
2023-08-07T15:32:02.051Z,80.90
2023-08-07T15:34:29.273Z,80.00
2023-08-07T15:36:56.580Z,81.30
2023-08-07T15:39:23.738Z,79.10
2023-08-07T15:41:50.764Z,80.30
2023-08-07T15:44:17.587Z,80.60
2023-08-07T15:46:44.650Z,80.60
2023-08-07T15:49:11.533Z,79.60
2023-08-07T15:51:38.521Z,81.00
2023-08-07T15:54:05.599Z,80.30
2023-08-07T15:56:32.460Z,80.60
2023-08-07T15:59:01.567Z,80.20
2023-08-07T16:01:28.466Z,80.30
2023-08-07T16:03:55.443Z,80.30
2023-08-07T16:06:22.699Z,80.80
2023-08-07T16:08:49.494Z,81.30
2023-08-07T16:11:16.398Z,81.60
2023-08-07T16:13:43.201Z,80.50
2023-08-07T16:16:10.094Z,81.60
2023-08-07T16:18:37.849Z,81.10
2023-08-07T16:21:04.674Z,81.70
2023-08-07T16:23:31.446Z,81.90
2023-08-07T16:25:58.357Z,82.60
2023-08-07T16:28:25.218Z,82.40
2023-08-07T16:30:51.996Z,82.20
2023-08-07T16:33:18.853Z,82.30
2023-08-07T16:35:45.646Z,83.30
2023-08-07T16:38:12.933Z,83.20
2023-08-07T16:40:40.200Z,83.20
2023-08-07T16:43:08.156Z,83.80
2023-08-07T16:45:35.116Z,83.40
2023-08-07T16:48:02.532Z,83.80
2023-08-07T16:50:29.497Z,83.90
2023-08-07T16:52:57.526Z,84.00
2023-08-07T16:55:24.381Z,84.00
2023-08-07T16:57:51.300Z,84.70
2023-08-07T17:00:19.138Z,84.70
2023-08-07T17:02:47.678Z,85.20
2023-08-07T17:05:14.626Z,85.40
2023-08-07T17:07:41.600Z,85.80
2023-08-07T17:10:14.231Z,86.00
2023-08-07T17:12:41.985Z,86.00
2023-08-07T17:15:09.522Z,86.70
2023-08-07T17:17:36.584Z,86.70
2023-08-07T17:20:05.005Z,86.70
2023-08-07T17:22:31.846Z,87.30
2023-08-07T17:24:59.647Z,87.40
2023-08-07T17:27:26.500Z,87.30
2023-08-07T17:29:54.979Z,87.60
2023-08-07T17:32:21.974Z,88.00
2023-08-07T17:34:48.896Z,87.80
2023-08-07T17:37:15.806Z,88.60
2023-08-07T17:39:42.612Z,89.10
2023-08-07T17:42:10.504Z,89.80
2023-08-07T17:44:37.721Z,90.10
2023-08-07T17:47:05.065Z,90.20
2023-08-07T17:49:31.920Z,90.30
2023-08-07T17:51:58.711Z,90.40
2023-08-07T17:54:25.643Z,90.50
2023-08-07T17:56:52.566Z,90.80
2023-08-07T17:59:19.723Z,90.80
2023-08-07T18:01:46.545Z,90.90
2023-08-07T18:04:13.510Z,91.00
2023-08-07T18:06:40.572Z,90.90
2023-08-07T18:09:07.501Z,90.00
2023-08-07T18:11:34.440Z,88.60
2023-08-07T18:14:01.321Z,87.20
2023-08-07T18:16:30.003Z,86.70
2023-08-07T18:18:58.358Z,87.70
2023-08-07T18:21:25.344Z,87.40
2023-08-07T18:23:52.337Z,87.50
2023-08-07T18:26:19.321Z,87.70
2023-08-07T18:28:46.327Z,86.40
2023-08-07T18:31:13.478Z,87.00
2023-08-07T18:33:40.284Z,87.00
2023-08-07T18:36:07.304Z,87.40
2023-08-07T18:38:34.056Z,87.50
2023-08-07T18:41:00.960Z,87.20
2023-08-07T18:43:27.834Z,87.30
2023-08-07T18:45:54.742Z,87.50
2023-08-07T18:48:21.632Z,87.80
2023-08-07T18:50:48.556Z,87.70
2023-08-07T18:53:15.617Z,88.10
2023-08-07T18:55:42.448Z,88.30
2023-08-07T18:58:09.238Z,88.30
2023-08-07T19:00:36.132Z,88.80
2023-08-07T19:03:03.108Z,89.10
2023-08-07T19:05:30.383Z,89.20
2023-08-07T19:07:57.245Z,89.30
2023-08-07T19:10:24.175Z,89.30
2023-08-07T19:12:51.079Z,89.30
2023-08-07T19:15:18.036Z,89.50
2023-08-07T19:17:44.900Z,89.20
2023-08-07T19:20:12.316Z,89.20
2023-08-07T19:22:39.535Z,88.80
2023-08-07T19:25:08.018Z,89.10
2023-08-07T19:27:37.791Z,88.30
2023-08-07T19:30:05.365Z,87.60
2023-08-07T19:32:32.346Z,87.50
2023-08-07T19:34:59.347Z,85.70
2023-08-07T19:37:26.764Z,85.40
2023-08-07T19:39:53.693Z,85.70
2023-08-07T19:42:20.499Z,85.90
2023-08-07T19:44:50.191Z,86.00
2023-08-07T19:47:34.064Z,86.50
2023-08-07T19:50:03.553Z,86.50
2023-08-07T19:52:30.432Z,86.70
2023-08-07T19:54:57.458Z,86.90
2023-08-07T19:57:25.119Z,87.00
2023-08-07T19:59:52.157Z,87.40
2023-08-07T20:02:19.174Z,87.50
2023-08-07T20:04:47.353Z,87.60
2023-08-07T20:07:14.293Z,87.50
2023-08-07T20:09:41.139Z,87.50
2023-08-07T20:12:08.551Z,87.70
2023-08-07T20:14:36.935Z,87.60
2023-08-07T20:17:06.856Z,87.70
2023-08-07T20:19:33.920Z,87.70
2023-08-07T20:22:00.802Z,88.10
2023-08-07T20:24:29.574Z,88.30
2023-08-07T20:26:57.427Z,88.50
2023-08-07T20:29:24.579Z,88.30
2023-08-07T20:31:51.358Z,88.70
2023-08-07T20:34:18.287Z,89.90
2023-08-07T20:36:45.272Z,89.30
2023-08-07T20:39:13.705Z,89.60
2023-08-07T20:41:40.617Z,89.70
2023-08-07T20:44:07.504Z,90.10
2023-08-07T20:46:34.663Z,90.30
2023-08-07T20:49:01.582Z,90.30
2023-08-07T20:51:28.489Z,90.50
2023-08-07T20:53:55.384Z,90.60
2023-08-07T20:56:22.548Z,90.60
2023-08-07T20:58:49.395Z,90.80
2023-08-07T21:01:16.315Z,90.70
2023-08-07T21:03:43.189Z,90.80
2023-08-07T21:06:10.191Z,90.80
2023-08-07T21:08:37.028Z,90.90
2023-08-07T21:11:03.895Z,91.00
2023-08-07T21:13:30.654Z,91.10
2023-08-07T21:15:57.799Z,91.20
2023-08-07T21:18:25.179Z,91.20
2023-08-07T21:20:52.882Z,91.40
2023-08-07T21:23:19.934Z,91.50
2023-08-07T21:25:47.073Z,91.60
2023-08-07T21:28:13.835Z,91.80
2023-08-07T21:30:40.727Z,91.80
2023-08-07T21:33:07.665Z,92.00
2023-08-07T21:35:34.803Z,92.10
2023-08-07T21:38:01.817Z,92.10
2023-08-07T21:40:28.684Z,92.10
2023-08-07T21:42:55.691Z,92.40
2023-08-07T21:45:22.586Z,92.50
2023-08-07T21:47:49.476Z,92.30
2023-08-07T21:50:16.568Z,92.40
2023-08-07T21:52:43.377Z,92.60
2023-08-07T21:55:10.355Z,92.40
2023-08-07T21:57:37.143Z,92.60
2023-08-07T22:00:07.066Z,92.70
2023-08-07T22:02:39.520Z,92.90
2023-08-07T22:05:07.729Z,93.00
2023-08-07T22:07:34.680Z,93.00
2023-08-07T22:10:01.707Z,93.20
2023-08-07T22:12:28.489Z,93.30
2023-08-07T22:14:57.272Z,93.50
2023-08-07T22:17:25.084Z,93.30
2023-08-07T22:20:03.249Z,93.60
2023-08-07T22:22:32.354Z,93.90
2023-08-07T22:24:59.138Z,93.70
2023-08-07T22:27:25.985Z,94.00
2023-08-07T22:29:53.042Z,93.90
2023-08-07T22:32:20.335Z,94.20
2023-08-07T22:34:47.270Z,94.20
2023-08-07T22:37:14.181Z,94.00
2023-08-07T22:39:41.064Z,94.30
2023-08-07T22:42:08.231Z,94.20
2023-08-07T22:44:35.307Z,94.20
2023-08-07T22:47:02.309Z,94.30
2023-08-07T22:49:30.901Z,94.20
2023-08-07T22:51:58.364Z,94.20
2023-08-07T22:54:26.131Z,94.20
2023-08-07T22:56:53.084Z,94.40
2023-08-07T22:59:19.909Z,94.40
2023-08-07T23:01:46.878Z,94.60
2023-08-07T23:04:13.681Z,94.80
2023-08-07T23:06:40.695Z,94.90
2023-08-07T23:09:07.462Z,94.80
2023-08-07T23:11:34.403Z,95.00
2023-08-07T23:14:01.273Z,95.00
2023-08-07T23:16:28.783Z,95.10
2023-08-07T23:18:55.634Z,95.30
2023-08-07T23:21:22.489Z,95.40
2023-08-07T23:23:49.473Z,95.30
2023-08-07T23:26:16.455Z,95.50
2023-08-07T23:28:43.268Z,95.50
2023-08-07T23:31:10.336Z,95.50
2023-08-07T23:33:37.167Z,95.50
2023-08-07T23:36:05.368Z,95.80
2023-08-07T23:38:32.274Z,95.90
2023-08-07T23:40:59.066Z,95.90
2023-08-07T23:43:25.874Z,96.30
2023-08-07T23:45:52.716Z,96.10
2023-08-07T23:48:19.563Z,96.00
2023-08-07T23:50:46.428Z,96.20
2023-08-07T23:53:13.221Z,96.50
2023-08-07T23:55:40.052Z,96.30
2023-08-07T23:58:09.540Z,96.50
